Time;durP1;ratioP1;P1;durP2;ratioP2;P2;SDS_P1;SDS_P2;PMS_P1;PMS_P2;Temp;Humidity;BMP_temperature;BMP_pressure;BME280_temperature;BME280_humidity;BME280_pressure;Samples;Min_cycle;Max_cycle;Signal;HPM_P1;HPM_P2
2023/06/16 00:02:12;;;;;;;9.15;6.47;;;;;;;13.74;65.61;98224.47;4983992;28;20069;-74
2023/06/16 00:04:38;;;;;;;11.52;6.80;;;;;;;13.70;65.73;98222.53;5033435;28;20040;-76
2023/06/16 00:07:05;;;;;;;9.82;6.88;;;;;;;13.79;65.78;98227.19;5016345;28;20072;-75
2023/06/16 00:09:31;;;;;;;8.95;6.63;;;;;;;13.91;65.49;98229.66;5006289;28;20031;-72
2023/06/16 00:11:57;;;;;;;7.97;6.38;;;;;;;13.56;66.54;98227.59;5036246;28;20037;-72
2023/06/16 00:14:22;;;;;;;7.50;6.50;;;;;;;13.50;67.16;98225.13;5035757;28;20057;-74
2023/06/16 00:16:48;;;;;;;9.75;6.43;;;;;;;13.59;66.76;98229.78;5020103;28;20651;-73
2023/06/16 00:19:15;;;;;;;10.90;6.85;;;;;;;13.08;67.87;98225.16;5055074;28;20025;-74
2023/06/16 00:21:42;;;;;;;7.25;6.45;;;;;;;13.40;67.66;98239.41;5036813;28;20075;-74
2023/06/16 00:24:08;;;;;;;11.82;6.88;;;;;;;13.25;67.97;98230.41;5035458;28;20100;-74
2023/06/16 00:26:34;;;;;;;10.30;7.05;;;;;;;13.26;67.95;98232.84;5053407;28;20028;-74
2023/06/16 00:29:02;;;;;;;9.38;7.35;;;;;;;13.46;67.49;98221.34;5036153;28;20021;-73
2023/06/16 00:31:30;;;;;;;10.32;7.20;;;;;;;13.18;68.15;98229.81;5036220;28;20567;-73
2023/06/16 00:33:55;;;;;;;7.82;7.03;;;;;;;12.96;68.74;98238.00;5018814;28;20475;-72
2023/06/16 00:36:20;;;;;;;8.93;7.07;;;;;;;12.95;68.47;98230.97;5035791;28;20112;-72
2023/06/16 00:38:46;;;;;;;9.05;7.10;;;;;;;13.06;68.53;98227.28;5053737;28;20028;-73
2023/06/16 00:41:11;;;;;;;9.15;6.75;;;;;;;13.26;67.33;98222.00;5053634;28;20045;-72
2023/06/16 00:43:37;;;;;;;8.55;7.05;;;;;;;13.40;67.38;98238.59;5035438;28;20017;-73
2023/06/16 00:46:02;;;;;;;8.57;6.70;;;;;;;12.53;69.95;98246.28;5019347;28;20041;-73
2023/06/16 00:48:27;;;;;;;8.13;6.63;;;;;;;12.97;68.22;98234.22;5019080;28;20116;-72
2023/06/16 00:50:55;;;;;;;9.77;6.60;;;;;;;13.08;68.38;98235.97;5020684;28;20125;-73
2023/06/16 00:53:21;;;;;;;11.52;7.38;;;;;;;13.01;68.19;98232.63;5006602;28;20112;-74
2023/06/16 00:55:47;;;;;;;8.02;7.20;;;;;;;13.07;67.94;98231.59;5033537;28;20033;-73
2023/06/16 00:58:14;;;;;;;9.98;7.30;;;;;;;13.18;68.02;98236.03;4988631;28;20471;-73
2023/06/16 01:00:39;;;;;;;8.50;6.90;;;;;;;13.22;67.92;98237.13;5017658;28;20041;-73
2023/06/16 01:03:08;;;;;;;8.18;6.72;;;;;;;13.28;66.88;98235.31;5034333;28;20076;-73
2023/06/16 01:05:34;;;;;;;9.57;7.03;;;;;;;13.19;67.51;98232.25;5035306;28;20099;-73
2023/06/16 01:08:19;;;;;;;7.63;6.40;;;;;;;13.15;67.73;98225.75;5006037;28;20076;-73
2023/06/16 01:11:17;;;;;;;9.43;6.45;;;;;;;13.07;67.50;98223.50;5020165;28;20037;-76
2023/06/16 01:14:02;;;;;;;8.60;6.97;;;;;;;12.86;68.68;98224.41;5011036;28;20049;-75
2023/06/16 01:16:31;;;;;;;9.10;6.45;;;;;;;12.74;68.20;98211.06;5052839;23;20054;-75
2023/06/16 01:18:58;;;;;;;7.65;6.63;;;;;;;12.61;69.70;98221.47;5035441;28;20082;-76
2023/06/16 01:21:38;;;;;;;9.38;7.15;;;;;;;12.59;69.30;98215.50;5005396;28;20068;-75
2023/06/16 01:24:07;;;;;;;9.52;7.43;;;;;;;12.38;69.93;98226.13;5022988;28;20037;-77
2023/06/16 01:26:36;;;;;;;7.85;7.05;;;;;;;12.46;69.37;98217.56;5021273;28;20037;-76
2023/06/16 01:29:05;;;;;;;9.63;8.30;;;;;;;11.78;72.00;98209.28;5008741;28;20037;-76
2023/06/16 01:31:31;;;;;;;11.82;10.73;;;;;;;11.04;75.23;98214.16;5026443;28;20078;-76
2023/06/16 01:33:58;;;;;;;12.27;11.07;;;;;;;11.11;75.25;98220.19;5009396;28;20382;-76
2023/06/16 01:36:24;;;;;;;11.52;10.50;;;;;;;11.74;72.68;98208.13;4988470;28;20047;-76
2023/06/16 01:38:51;;;;;;;11.88;10.85;;;;;;;11.06;74.95;98216.63;5021981;28;20037;-77
2023/06/16 01:41:18;;;;;;;12.88;11.85;;;;;;;11.22;74.52;98205.00;5019153;28;20030;-77
2023/06/16 01:43:45;;;;;;;12.93;11.82;;;;;;;11.31;74.11;98216.16;5016142;28;20119;-78
2023/06/16 01:46:12;;;;;;;12.68;11.60;;;;;;;11.48;73.18;98219.66;5026893;28;20065;-78
2023/06/16 01:48:37;;;;;;;12.23;11.07;;;;;;;11.66;72.99;98217.47;4993193;28;20034;-77
2023/06/16 01:51:03;;;;;;;10.90;9.80;;;;;;;11.62;71.81;98212.81;5004810;28;20361;-77
2023/06/16 01:53:28;;;;;;;10.60;9.60;;;;;;;11.21;73.46;98210.63;5022837;28;20037;-77
2023/06/16 01:55:54;;;;;;;11.55;10.25;;;;;;;11.51;73.60;98221.81;5023165;28;20013;-77
2023/06/16 01:58:25;;;;;;;11.38;10.38;;;;;;;11.82;72.41;98226.59;5039933;28;20103;-77
2023/06/16 02:00:59;;;;;;;9.85;8.85;;;;;;;11.92;70.98;98221.31;5001013;28;20035;-77
2023/06/16 02:03:30;;;;;;;10.43;9.40;;;;;;;12.08;70.35;98216.91;5000111;28;20046;-78
2023/06/16 02:05:58;;;;;;;9.73;8.73;;;;;;;12.11;70.80;98219.88;5015930;28;20120;-77
2023/06/16 02:08:27;;;;;;;10.23;9.05;;;;;;;11.87;70.87;98215.84;5025046;28;20025;-78
2023/06/16 02:10:54;;;;;;;10.50;9.13;;;;;;;11.92;71.15;98210.53;5013894;28;20477;-79
2023/06/16 02:13:20;;;;;;;9.90;9.05;;;;;;;11.91;70.99;98213.47;5011751;28;20444;-76
2023/06/16 02:15:46;;;;;;;11.23;10.13;;;;;;;11.75;71.91;98216.00;5019152;28;20029;-76
2023/06/16 02:18:12;;;;;;;13.00;9.77;;;;;;;11.73;71.42;98211.91;5028160;28;20478;-75
2023/06/16 02:20:38;;;;;;;9.73;8.93;;;;;;;11.90;70.61;98209.97;5036195;28;20120;-76
2023/06/16 02:23:04;;;;;;;10.05;9.05;;;;;;;11.94;70.54;98213.78;5017988;28;20025;-76
2023/06/16 02:25:29;;;;;;;9.45;8.50;;;;;;;11.99;70.49;98213.84;5022989;28;20029;-76
2023/06/16 02:27:55;;;;;;;9.40;8.50;;;;;;;11.91;70.16;98211.56;5006844;28;20131;-78
2023/06/16 02:30:21;;;;;;;9.23;7.78;;;;;;;11.98;70.82;98209.50;5050291;28;20067;-77
2023/06/16 02:32:48;;;;;;;9.63;8.73;;;;;;;11.86;71.19;98216.09;5016928;28;20031;-77
2023/06/16 02:35:14;;;;;;;10.27;9.25;;;;;;;11.81;71.63;98205.25;4994773;28;20060;-77
2023/06/16 02:37:41;;;;;;;11.30;10.35;;;;;;;11.77;71.89;98213.03;5019807;28;20117;-78
2023/06/16 02:40:08;;;;;;;14.00;11.10;;;;;;;11.42;73.04;98204.44;4993856;28;20064;-77
2023/06/16 02:42:34;;;;;;;12.48;11.38;;;;;;;11.41;73.06;98210.91;5004729;28;20029;-77
2023/06/16 02:45:00;;;;;;;14.38;13.18;;;;;;;11.22;74.18;98205.00;5026752;28;20033;-77
2023/06/16 02:47:26;;;;;;;14.88;13.77;;;;;;;11.30;73.90;98206.44;5008664;28;20025;-77
2023/06/16 02:49:54;;;;;;;15.23;14.02;;;;;;;11.21;74.39;98207.94;5014714;28;20394;-78
2023/06/16 02:52:20;;;;;;;16.00;14.70;;;;;;;11.09;74.40;98195.38;5029623;28;20096;-78
2023/06/16 02:54:46;;;;;;;15.07;14.05;;;;;;;11.40;73.48;98206.59;5017006;28;20089;-78
2023/06/16 02:57:17;;;;;;;16.08;14.82;;;;;;;11.63;73.15;98211.75;5006256;28;20025;-78
2023/06/16 02:59:47;;;;;;;15.88;14.52;;;;;;;11.62;73.34;98204.72;5031958;28;20051;-78
2023/06/16 03:02:12;;;;;;;15.75;14.13;;;;;;;11.65;73.00;98213.13;5015407;28;20037;-76
2023/06/16 03:05:02;;;;;;;13.40;12.38;;;;;;;11.76;72.26;98206.81;5031072;28;20035;-77
2023/06/16 03:07:31;;;;;;;13.18;12.07;;;;;;;12.06;71.86;98213.63;5007844;28;20432;-76
2023/06/16 03:09:59;;;;;;;11.70;10.70;;;;;;;12.32;71.55;98205.53;5004740;28;20025;-78
2023/06/16 03:12:26;;;;;;;12.07;10.88;;;;;;;12.48;70.90;98201.91;5005923;28;20026;-78
2023/06/16 03:14:58;;;;;;;12.13;10.98;;;;;;;12.33;71.57;98207.19;5013401;28;20029;-78
2023/06/16 03:17:24;;;;;;;12.48;11.07;;;;;;;12.39;71.54;98211.53;5006890;28;20040;-77
2023/06/16 03:19:50;;;;;;;13.10;11.80;;;;;;;12.45;71.13;98215.94;5003877;28;20025;-78
2023/06/16 03:22:21;;;;;;;13.15;11.95;;;;;;;12.21;71.59;98217.31;5015209;28;20032;-78
2023/06/16 03:24:47;;;;;;;10.95;9.95;;;;;;;12.37;70.69;98213.69;5008047;28;20055;-79
2023/06/16 03:27:15;;;;;;;11.07;9.88;;;;;;;12.60;70.33;98211.75;5014411;28;20040;-78
2023/06/16 03:29:48;;;;;;;11.27;10.13;;;;;;;12.57;70.46;98206.84;5021449;28;20044;-78
2023/06/16 03:32:14;;;;;;;11.05;10.05;;;;;;;12.47;71.25;98208.41;5014130;28;20030;-78
2023/06/16 03:34:40;;;;;;;12.50;11.30;;;;;;;12.57;70.94;98209.56;5009297;28;20029;-78
2023/06/16 03:37:06;;;;;;;13.40;10.43;;;;;;;12.64;70.60;98210.16;4999176;28;20510;-78
2023/06/16 03:39:36;;;;;;;10.07;9.18;;;;;;;12.74;69.70;98213.75;5025028;28;20021;-77
2023/06/16 03:42:01;;;;;;;10.55;9.45;;;;;;;12.72;69.61;98205.09;5014652;28;20166;-78
2023/06/16 03:44:27;;;;;;;15.70;9.75;;;;;;;12.79;69.97;98210.31;5016701;28;20135;-78
2023/06/16 03:46:53;;;;;;;12.30;11.20;;;;;;;12.42;71.43;98215.63;5032193;28;20521;-78
2023/06/16 03:49:19;;;;;;;14.05;12.70;;;;;;;12.20;72.50;98218.41;5000284;28;20029;-77
2023/06/16 03:51:45;;;;;;;11.77;10.98;;;;;;;12.33;72.08;98212.59;5003799;28;20033;-78
2023/06/16 03:54:11;;;;;;;12.65;11.65;;;;;;;12.02;73.01;98220.63;5022997;28;20032;-76
2023/06/16 03:56:37;;;;;;;15.90;14.43;;;;;;;11.87;73.92;98218.56;5009014;28;20037;-76
2023/06/16 03:59:03;;;;;;;16.88;15.48;;;;;;;11.90;74.14;98223.47;5023163;28;20031;-76
2023/06/16 04:01:29;;;;;;;15.05;13.70;;;;;;;12.10;73.51;98229.06;4992116;28;20037;-76
2023/06/16 04:03:54;;;;;;;17.88;16.42;;;;;;;11.77;75.10;98240.00;5018393;28;20100;-77
2023/06/16 04:06:19;;;;;;;18.08;16.73;;;;;;;11.69;75.65;98240.47;5008480;28;20057;-76
2023/06/16 04:08:46;;;;;;;18.35;16.95;;;;;;;11.88;74.62;98246.38;5021485;28;20021;-74
2023/06/16 04:11:13;;;;;;;18.52;17.25;;;;;;;11.92;74.48;98244.78;5020283;28;20029;-75
2023/06/16 04:13:39;;;;;;;17.58;15.85;;;;;;;12.16;73.56;98262.34;5022228;28;20390;-73
2023/06/16 04:16:10;;;;;;;15.57;14.15;;;;;;;12.58;72.20;98252.50;5020428;28;20036;-76
2023/06/16 04:18:36;;;;;;;13.77;12.48;;;;;;;12.64;70.85;98250.69;5016402;28;20041;-76
2023/06/16 04:21:02;;;;;;;13.38;12.18;;;;;;;12.42;71.57;98251.56;5021457;28;20024;-76
2023/06/16 04:23:29;;;;;;;15.40;14.00;;;;;;;12.23;72.50;98257.53;5005830;28;20032;-75
2023/06/16 04:25:55;;;;;;;13.88;12.52;;;;;;;12.29;72.25;98249.28;5036302;28;20028;-76
2023/06/16 04:28:22;;;;;;;15.05;13.75;;;;;;;12.28;73.46;98247.63;4985953;28;20037;-76
2023/06/16 04:30:50;;;;;;;15.82;14.07;;;;;;;12.61;72.12;98245.78;5004064;28;20025;-75
2023/06/16 04:33:16;;;;;;;18.40;16.80;;;;;;;12.17;74.34;98239.69;5013152;28;20039;-75
2023/06/16 04:35:41;;;;;;;18.80;17.00;;;;;;;12.45;73.68;98242.97;5009504;28;20030;-75
2023/06/16 04:38:07;;;;;;;18.65;17.15;;;;;;;12.35;74.61;98252.81;4996588;28;20509;-76
2023/06/16 04:40:35;;;;;;;19.10;17.70;;;;;;;12.00;74.80;98274.84;5019495;28;20071;-76
2023/06/16 04:43:02;;;;;;;22.40;20.75;;;;;;;11.56;77.77;98265.88;5005388;28;20111;-76
2023/06/16 04:45:28;;;;;;;19.30;17.90;;;;;;;12.19;74.91;98269.94;5019182;28;20496;-75
2023/06/16 04:47:53;;;;;;;16.33;14.73;;;;;;;12.77;72.05;98256.47;5019044;28;20032;-76
2023/06/16 04:50:19;;;;;;;15.73;14.20;;;;;;;12.93;71.99;98249.31;5008725;28;20032;-76
2023/06/16 04:52:47;;;;;;;16.23;14.82;;;;;;;12.72;71.98;98263.75;5035635;28;20079;-76
2023/06/16 04:55:17;;;;;;;16.45;15.00;;;;;;;12.80;72.21;98266.78;5021213;28;20048;-76
2023/06/16 04:57:43;;;;;;;16.67;15.27;;;;;;;12.56;72.83;98268.16;5017649;28;20030;-76
2023/06/16 05:00:11;;;;;;;16.25;14.95;;;;;;;12.39;73.59;98270.97;4997761;28;20017;-76
2023/06/16 05:02:37;;;;;;;15.93;14.73;;;;;;;12.71;72.43;98276.44;5026916;28;20037;-76
2023/06/16 05:05:03;;;;;;;18.42;16.63;;;;;;;12.55;73.78;98273.84;4998227;28;20556;-76
2023/06/16 05:07:29;;;;;;;19.67;18.00;;;;;;;12.27;75.14;98278.41;4999029;28;20116;-76
2023/06/16 05:09:55;;;;;;;19.75;17.95;;;;;;;12.32;74.59;98259.53;5010634;28;20081;-76
2023/06/16 05:12:20;;;;;;;17.85;16.27;;;;;;;12.70;73.28;98268.56;5004386;28;20510;-75
2023/06/16 05:14:46;;;;;;;14.63;13.23;;;;;;;13.17;70.65;98266.84;5046096;28;20467;-76
2023/06/16 05:17:12;;;;;;;15.02;13.73;;;;;;;13.19;72.21;98259.28;5044369;28;20109;-76
2023/06/16 05:19:39;;;;;;;22.02;20.23;;;;;;;13.22;73.65;98258.78;5011340;28;20112;-76
2023/06/16 05:22:04;;;;;;;26.35;24.45;;;;;;;12.67;77.50;98283.41;5007076;28;20518;-76
2023/06/16 05:24:31;;;;;;;25.95;24.15;;;;;;;12.68;76.74;98290.44;5012466;28;20120;-76
2023/06/16 05:26:58;;;;;;;27.63;25.70;;;;;;;12.90;76.33;98282.28;5006436;28;20544;-76
2023/06/16 05:29:24;;;;;;;25.70;23.70;;;;;;;13.20;74.93;98263.63;5019443;28;20115;-76
2023/06/16 05:31:50;;;;;;;27.52;25.58;;;;;;;13.34;75.37;98248.59;5023423;28;20043;-76
2023/06/16 05:34:16;;;;;;;29.65;27.40;;;;;;;13.56;75.93;98243.06;5002433;28;20498;-76
2023/06/16 05:36:41;;;;;;;31.40;29.50;;;;;;;13.38;77.81;98238.88;5003809;28;20037;-76
2023/06/16 05:39:13;;;;;;;38.80;36.25;;;;;;;12.57;79.84;98248.19;5018881;28;20029;-76
2023/06/16 05:41:39;;;;;;;32.25;30.15;;;;;;;13.09;76.91;98243.00;5007968;28;20047;-76
2023/06/16 05:44:04;;;;;;;40.75;38.35;;;;;;;12.88;79.81;98230.38;5018214;28;20487;-76
2023/06/16 05:46:31;;;;;;;43.55;40.95;;;;;;;13.00;79.59;98230.97;5007585;28;20749;-76
2023/06/16 05:48:57;;;;;;;40.05;37.67;;;;;;;13.74;77.90;98229.88;5018344;28;20040;-76
2023/06/16 05:51:24;;;;;;;42.28;39.38;;;;;;;13.93;78.65;98226.72;5008926;28;20103;-75
2023/06/16 05:53:50;;;;;;;40.13;37.70;;;;;;;14.12;78.33;98230.56;4985734;28;20510;-76
2023/06/16 05:56:16;;;;;;;29.23;27.42;;;;;;;14.27;75.76;98228.72;5003907;28;20033;-76
2023/06/16 05:58:42;;;;;;;32.20;30.00;;;;;;;14.01;76.48;98226.19;5017745;28;20482;-76
2023/06/16 06:01:08;;;;;;;31.58;29.60;;;;;;;14.30;76.30;98227.41;5009044;28;20037;-76
2023/06/16 06:03:35;;;;;;;26.70;24.50;;;;;;;14.73;74.71;98224.19;5016656;28;20036;-76
2023/06/16 06:06:01;;;;;;;20.58;19.10;;;;;;;14.74;73.31;98217.72;4999819;28;20082;-76
2023/06/16 06:08:28;;;;;;;26.10;24.42;;;;;;;14.56;76.35;98217.41;5018431;28;20032;-76
2023/06/16 06:10:54;;;;;;;33.65;31.45;;;;;;;14.13;77.86;98226.78;4998411;28;20123;-76
2023/06/16 06:13:22;;;;;;;36.22;33.92;;;;;;;14.59;78.93;98236.66;4994894;28;20128;-76
2023/06/16 06:15:48;;;;;;;36.75;34.33;;;;;;;15.07;77.15;98233.44;5004137;28;20542;-76
2023/06/16 06:18:16;;;;;;;31.48;29.25;;;;;;;14.73;77.90;98243.19;5011169;28;20497;-76
2023/06/16 06:20:45;;;;;;;31.30;29.33;;;;;;;14.78;77.29;98245.91;5005440;28;20030;-76
2023/06/16 06:23:11;;;;;;;22.05;20.45;;;;;;;14.37;75.98;98244.22;5013425;28;20060;-76
2023/06/16 06:25:40;;;;;;;29.13;27.13;;;;;;;14.53;76.87;98254.00;5008493;28;20035;-76
2023/06/16 06:28:07;;;;;;;22.50;20.60;;;;;;;14.53;74.46;98262.13;5004349;28;20017;-75
2023/06/16 06:30:32;;;;;;;24.00;22.20;;;;;;;14.81;75.33;98258.94;5019792;28;20125;-76
2023/06/16 06:33:00;;;;;;;19.92;18.35;;;;;;;14.81;74.09;98269.78;5009192;28;20025;-75
2023/06/16 06:35:25;;;;;;;24.13;22.40;;;;;;;14.72;74.85;98270.56;5021501;28;20029;-76
2023/06/16 06:37:51;;;;;;;25.45;23.65;;;;;;;14.52;76.15;98265.91;5013472;28;20018;-76
2023/06/16 06:40:17;;;;;;;25.77;23.98;;;;;;;14.82;75.90;98282.22;5021684;28;20049;-76
2023/06/16 06:42:43;;;;;;;23.48;21.77;;;;;;;15.04;75.89;98280.09;4997655;28;20029;-76
2023/06/16 06:45:23;;;;;;;26.73;24.85;;;;;;;15.48;75.07;98272.22;5010660;28;20522;-76
2023/06/16 06:47:49;;;;;;;20.75;19.15;;;;;;;15.65;73.02;98274.63;5014605;28;20130;-76
2023/06/16 06:50:15;;;;;;;22.25;20.65;;;;;;;15.70;73.70;98269.19;5034213;28;20660;-76
2023/06/16 06:52:40;;;;;;;23.48;21.77;;;;;;;15.54;72.72;98275.75;5031901;28;20061;-76
2023/06/16 06:55:06;;;;;;;19.88;18.33;;;;;;;15.45;73.26;98277.41;5031262;28;20045;-76
2023/06/16 06:57:32;;;;;;;16.85;15.55;;;;;;;15.73;71.45;98283.03;5033373;28;20056;-76
2023/06/16 06:59:57;;;;;;;16.48;14.93;;;;;;;15.88;70.87;98271.31;5010469;28;20474;-76
2023/06/16 07:02:23;;;;;;;16.50;15.00;;;;;;;16.05;71.19;98277.25;5019363;28;20036;-76
2023/06/16 07:04:49;;;;;;;18.27;16.67;;;;;;;16.19;71.85;98278.28;5020747;28;20119;-76
2023/06/16 07:07:14;;;;;;;18.85;17.00;;;;;;;16.04;72.05;98282.94;5042088;28;20124;-76
2023/06/16 07:09:39;;;;;;;17.80;15.95;;;;;;;16.09;71.45;98277.47;5037395;28;20017;-76
2023/06/16 07:12:07;;;;;;;18.10;16.50;;;;;;;16.71;70.12;98282.38;5041753;28;20486;-76
2023/06/16 07:14:32;;;;;;;16.70;15.10;;;;;;;16.50;70.16;98285.16;5024244;28;20474;-76
2023/06/16 07:16:57;;;;;;;14.13;12.88;;;;;;;17.16;68.29;98282.03;5017833;28;20041;-75
2023/06/16 07:19:26;;;;;;;15.50;13.93;;;;;;;16.98;69.67;98293.63;5010219;28;20021;-76
2023/06/16 07:21:53;;;;;;;15.90;13.07;;;;;;;16.99;68.76;98292.53;5031002;28;20041;-75
2023/06/16 07:24:18;;;;;;;16.48;14.93;;;;;;;17.05;69.47;98291.38;5016463;28;20025;-75
2023/06/16 07:26:44;;;;;;;13.32;12.13;;;;;;;17.07;69.59;98300.06;5016714;28;20040;-75
2023/06/16 07:29:09;;;;;;;13.23;11.60;;;;;;;17.42;67.12;98291.63;5034932;28;20026;-75
2023/06/16 07:31:34;;;;;;;12.70;10.77;;;;;;;17.49;67.70;98297.53;5017037;28;20738;-75
2023/06/16 07:34:00;;;;;;;12.00;10.13;;;;;;;17.62;65.53;98291.44;5000440;28;20025;-75
2023/06/16 07:36:25;;;;;;;11.05;9.80;;;;;;;17.84;65.57;98297.22;5000751;28;20045;-75
2023/06/16 07:38:51;;;;;;;10.95;9.30;;;;;;;17.81;64.46;98296.97;5000797;28;20108;-75
2023/06/16 07:41:16;;;;;;;11.77;8.73;;;;;;;18.05;63.69;98288.81;5000610;28;20067;-75
2023/06/16 07:43:42;;;;;;;12.30;9.82;;;;;;;18.19;64.97;98295.19;5016465;28;20049;-75
2023/06/16 07:46:07;;;;;;;11.27;9.05;;;;;;;18.25;63.26;98294.84;5005181;28;20099;-75
2023/06/16 07:48:32;;;;;;;11.80;9.82;;;;;;;18.28;62.64;98293.44;5036688;28;20017;-75
2023/06/16 07:50:58;;;;;;;11.32;8.60;;;;;;;18.13;62.08;98286.28;5036577;28;20037;-75
2023/06/16 07:53:23;;;;;;;14.95;9.23;;;;;;;18.41;64.04;98288.09;5019596;28;20029;-75
2023/06/16 07:55:48;;;;;;;11.18;9.05;;;;;;;18.48;62.31;98287.78;5018115;28;20399;-75
2023/06/16 07:58:14;;;;;;;11.70;8.05;;;;;;;18.75;61.38;98285.22;5014179;28;20060;-75
2023/06/16 08:00:39;;;;;;;12.43;8.60;;;;;;;18.76;60.00;98278.66;5015035;28;20134;-75
2023/06/16 08:03:06;;;;;;;11.52;7.93;;;;;;;18.69;60.09;98282.84;5027683;28;20040;-75
2023/06/16 08:05:31;;;;;;;9.75;7.20;;;;;;;18.95;56.40;98282.19;5031388;28;20402;-76
2023/06/16 08:07:56;;;;;;;11.02;7.13;;;;;;;19.03;55.25;98281.53;5028055;28;20032;-75
2023/06/16 08:10:23;;;;;;;8.52;6.53;;;;;;;19.20;54.69;98279.06;5036230;28;20479;-75
2023/06/16 08:12:51;;;;;;;12.75;6.22;;;;;;;19.31;52.66;98277.78;5018949;28;20021;-75
2023/06/16 08:15:17;;;;;;;7.13;5.82;;;;;;;19.53;51.73;98270.91;5035904;28;20129;-75
2023/06/16 08:17:43;;;;;;;9.95;6.32;;;;;;;19.78;50.39;98273.16;5036234;28;20549;-75
2023/06/16 08:20:10;;;;;;;6.72;5.80;;;;;;;19.80;50.33;98270.94;5036195;28;20115;-75
2023/06/16 08:22:35;;;;;;;8.43;6.03;;;;;;;19.80;50.32;98265.47;5025274;28;20064;-75
2023/06/16 08:25:02;;;;;;;7.30;6.15;;;;;;;19.86;50.47;98258.81;4999063;28;20075;-75
2023/06/16 08:27:27;;;;;;;8.27;5.65;;;;;;;19.94;51.12;98263.56;4999910;28;20068;-75
2023/06/16 08:29:53;;;;;;;9.32;5.35;;;;;;;20.08;48.95;98255.34;5033731;28;20118;-75
2023/06/16 08:32:19;;;;;;;8.45;4.95;;;;;;;20.17;49.11;98259.81;5016110;28;20025;-75
2023/06/16 08:34:44;;;;;;;9.63;5.30;;;;;;;20.48;48.90;98260.81;5012326;28;20100;-75
2023/06/16 08:37:10;;;;;;;9.38;5.47;;;;;;;20.15;49.73;98253.03;5015953;28;20021;-75
2023/06/16 08:39:35;;;;;;;6.47;5.70;;;;;;;20.29;47.34;98262.06;5033699;28;20041;-74
2023/06/16 08:42:01;;;;;;;7.25;4.65;;;;;;;20.35;48.83;98261.63;5015909;28;20030;-75
2023/06/16 08:44:27;;;;;;;8.07;5.18;;;;;;;19.88;48.95;98267.50;5028449;28;20072;-75
2023/06/16 08:46:52;;;;;;;7.95;5.30;;;;;;;20.47;48.70;98259.19;4983337;28;20086;-75
2023/06/16 08:49:18;;;;;;;7.95;5.38;;;;;;;20.60;46.89;98252.91;5015943;28;20025;-75
2023/06/16 08:51:48;;;;;;;8.50;5.22;;;;;;;20.57;48.09;98253.50;5033219;28;20401;-75
2023/06/16 08:54:13;;;;;;;6.57;4.75;;;;;;;20.44;48.67;98259.78;5018279;28;20094;-75
2023/06/16 08:56:40;;;;;;;7.20;5.50;;;;;;;20.83;48.04;98261.13;5034173;28;20025;-75
2023/06/16 08:59:06;;;;;;;9.73;5.43;;;;;;;20.33;47.50;98269.34;5028934;28;20041;-75
2023/06/16 09:01:33;;;;;;;10.07;5.60;;;;;;;20.75;46.54;98259.16;5039517;28;20459;-75
2023/06/16 09:03:59;;;;;;;11.68;5.65;;;;;;;21.27;46.10;98261.19;5021581;28;20068;-76
2023/06/16 09:06:25;;;;;;;8.73;5.88;;;;;;;20.75;45.55;98264.63;5040611;28;20108;-75
2023/06/16 09:08:50;;;;;;;6.93;5.13;;;;;;;20.95;45.52;98259.47;5016187;28;20061;-75
2023/06/16 09:11:26;;;;;;;7.30;5.18;;;;;;;20.86;45.73;98260.53;5024804;28;20087;-75
2023/06/16 09:13:52;;;;;;;8.95;5.53;;;;;;;21.01;45.61;98255.50;5015021;28;20538;-75
2023/06/16 09:16:19;;;;;;;8.05;4.80;;;;;;;21.43;44.90;98254.19;5009131;28;20040;-75
2023/06/16 09:18:48;;;;;;;7.47;5.10;;;;;;;21.64;44.25;98249.00;4999075;28;20061;-75
2023/06/16 09:21:20;;;;;;;6.22;5.00;;;;;;;21.69;44.20;98240.63;5032747;28;20109;-75
2023/06/16 09:23:48;;;;;;;7.47;5.07;;;;;;;22.08;42.98;98234.41;5014496;28;20034;-75
2023/06/16 09:26:13;;;;;;;7.43;4.70;;;;;;;21.94;43.72;98235.31;5014812;28;20030;-75
2023/06/16 09:28:39;;;;;;;7.88;4.97;;;;;;;22.53;42.18;98233.03;5003216;28;20040;-75
2023/06/16 09:31:11;;;;;;;6.22;4.93;;;;;;;22.91;41.48;98231.31;5026967;28;20033;-75
2023/06/16 09:33:37;;;;;;;6.32;4.65;;;;;;;22.29;43.34;98232.66;5050853;28;20037;-75
2023/06/16 09:36:02;;;;;;;8.02;5.25;;;;;;;22.18;41.68;98220.38;5039157;28;20094;-75
2023/06/16 09:38:36;;;;;;;6.80;4.13;;;;;;;22.35;41.80;98232.22;5047860;28;20036;-75
2023/06/16 09:41:28;;;;;;;7.75;5.05;;;;;;;22.20;40.87;98224.41;5031489;28;20041;-76
2023/06/16 09:43:58;;;;;;;11.40;5.40;;;;;;;21.64;44.35;98232.56;4997483;28;20105;-74
2023/06/16 09:46:24;;;;;;;7.05;5.05;;;;;;;21.69;44.71;98213.22;5020429;28;20045;-75
2023/06/16 09:48:50;;;;;;;5.45;4.53;;;;;;;22.41;43.17;98225.44;5014800;28;20074;-75
2023/06/16 09:51:20;;;;;;;6.63;4.78;;;;;;;22.50;42.53;98219.94;5024972;28;20406;-76
2023/06/16 09:53:48;;;;;;;6.05;4.90;;;;;;;22.07;42.13;98210.81;5018596;28;20033;-75
2023/06/16 09:56:17;;;;;;;7.38;5.00;;;;;;;22.82;42.53;98208.56;5007327;28;20028;-75
2023/06/16 09:58:45;;;;;;;5.03;3.90;;;;;;;22.21;40.39;98206.03;5000161;28;20039;-76
2023/06/16 10:01:10;;;;;;;4.88;3.95;;;;;;;21.70;41.05;98210.19;5009917;28;20025;-75
2023/06/16 10:03:41;;;;;;;9.07;4.03;;;;;;;21.48;42.08;98212.16;5029304;28;20032;-75
2023/06/16 10:06:14;;;;;;;5.38;4.20;;;;;;;22.03;41.34;98203.22;5034155;28;20037;-75
2023/06/16 10:08:40;;;;;;;4.97;3.75;;;;;;;22.68;39.13;98203.19;5017630;28;20044;-75
2023/06/16 10:11:08;;;;;;;5.72;4.10;;;;;;;22.83;39.17;98204.66;5051802;28;20071;-75
2023/06/16 10:13:34;;;;;;;7.22;3.97;;;;;;;22.40;40.03;98212.03;5033464;28;20056;-76
2023/06/16 10:16:00;;;;;;;4.95;4.13;;;;;;;22.26;39.61;98200.38;5034027;28;20029;-76
2023/06/16 10:18:26;;;;;;;6.18;4.07;;;;;;;22.52;39.38;98201.25;5034129;28;20045;-76
2023/06/16 10:20:52;;;;;;;5.60;3.60;;;;;;;22.23;39.46;98192.78;5023707;28;20025;-76
2023/06/16 10:23:18;;;;;;;5.78;3.38;;;;;;;22.85;39.11;98191.41;5044853;28;20045;-76
2023/06/16 10:25:43;;;;;;;4.72;3.65;;;;;;;23.18;38.74;98189.75;5029464;28;20032;-76
2023/06/16 10:28:13;;;;;;;9.05;3.60;;;;;;;22.40;39.85;98187.34;5014878;28;20122;-76
2023/06/16 10:30:39;;;;;;;4.15;3.65;;;;;;;22.68;38.27;98202.41;4991067;28;20033;-76
2023/06/16 10:33:22;;;;;;;4.57;3.53;;;;;;;22.91;38.04;98190.13;5013714;28;20368;-76
2023/06/16 10:35:51;;;;;;;5.68;3.47;;;;;;;23.02;37.85;98190.59;5027005;28;20032;-76
2023/06/16 10:38:17;;;;;;;6.60;3.90;;;;;;;23.65;37.73;98187.88;5034059;28;20024;-77
2023/06/16 10:40:44;;;;;;;6.82;3.75;;;;;;;23.81;36.60;98196.38;5034089;28;20056;-76
2023/06/16 10:43:23;;;;;;;9.05;3.95;;;;;;;22.43;37.97;98190.22;5051162;28;20029;-76
2023/06/16 10:45:48;;;;;;;5.60;3.70;;;;;;;22.26;39.31;98183.94;5017480;28;20667;-78
2023/06/16 10:48:13;;;;;;;6.78;3.60;;;;;;;22.48;38.65;98190.06;5028673;28;20026;-75
2023/06/16 10:50:39;;;;;;;4.28;3.67;;;;;;;21.73;39.78;98197.75;4985197;28;20136;-74
2023/06/16 10:53:16;;;;;;;8.65;3.70;;;;;;;23.50;38.37;98190.38;5039164;28;20036;-75
2023/06/16 10:55:44;;;;;;;4.90;4.10;;;;;;;22.52;38.83;98171.81;5029349;28;20037;-75
2023/06/16 10:58:16;;;;;;;6.78;4.57;;;;;;;22.15;40.57;98191.63;4982007;28;20598;-75
2023/06/16 11:01:06;;;;;;;6.82;4.05;;;;;;;21.50;41.98;98194.28;5031567;28;20399;-75
2023/06/16 11:03:57;;;;;;;6.70;4.28;;;;;;;21.73;42.91;98198.56;5004607;28;20045;-75
2023/06/16 11:06:22;;;;;;;7.30;4.30;;;;;;;20.81;48.71;98214.91;5051070;28;20041;-75
2023/06/16 11:08:56;;;;;;;7.80;4.25;;;;;;;20.46;52.30;98219.28;5011459;28;20107;-75
2023/06/16 11:11:29;;;;;;;6.78;4.25;;;;;;;21.09;51.61;98215.63;5026872;28;20029;-75
2023/06/16 11:13:56;;;;;;;6.15;4.63;;;;;;;20.87;50.97;98212.84;5016443;28;20072;-75
2023/06/16 11:16:21;;;;;;;7.82;4.43;;;;;;;21.30;52.30;98198.38;5018704;28;20040;-75
2023/06/16 11:18:50;;;;;;;8.02;4.78;;;;;;;22.45;48.49;98203.66;4996625;28;20041;-75
2023/06/16 11:21:15;;;;;;;6.68;4.88;;;;;;;23.05;47.09;98195.44;5011278;28;20075;-75
2023/06/16 11:23:43;;;;;;;6.85;4.43;;;;;;;23.55;45.67;98190.19;5050520;28;20259;-75
2023/06/16 11:26:18;;;;;;;8.85;4.50;;;;;;;23.44;42.75;98186.16;5017109;28;20033;-76